Time;durP1;ratioP1;P1;durP2;ratioP2;P2;SDS_P1;SDS_P2;PMS_P1;PMS_P2;Temp;Humidity;BMP_temperature;BMP_pressure;BME280_temperature;BME280_humidity;BME280_pressure;Samples;Min_cycle;Max_cycle;Signal;HPM_P1;HPM_P2
2023/08/09 00:01:55;;;;;;;;;;;16.20;99.90;;;;;;5059767;28;19916;-46
2023/08/09 00:04:21;;;;;;;;;;;16.30;99.90;;;;;;5090573;28;19927;-47
2023/08/09 00:06:46;;;;;;;;;;;16.20;99.90;;;;;;5039993;28;20237;-50
2023/08/09 00:09:12;;;;;;;;;;;16.20;99.90;;;;;;5068713;28;19930;-48
2023/08/09 00:11:38;;;;;;;;;;;16.40;99.90;;;;;;5036850;28;19946;-46
2023/08/09 00:14:03;;;;;;;;;;;16.30;99.90;;;;;;5071415;28;19997;-49
2023/08/09 00:16:29;;;;;;;;;;;16.30;99.90;;;;;;5074297;28;19916;-49
2023/08/09 00:18:54;;;;;;;;;;;16.30;99.90;;;;;;5070770;28;19912;-49
2023/08/09 00:21:20;;;;;;;;;;;16.40;99.90;;;;;;5058646;28;19910;-46
2023/08/09 00:23:46;;;;;;;;;;;16.40;99.90;;;;;;5050704;28;20297;-49
2023/08/09 00:26:11;;;;;;;;;;;16.30;99.90;;;;;;5052685;28;20245;-47
2023/08/09 00:28:37;;;;;;;;;;;16.40;99.90;;;;;;5056852;28;19948;-47
2023/08/09 00:31:03;;;;;;;;;;;16.40;99.90;;;;;;5031417;28;20045;-48
2023/08/09 00:33:29;;;;;;;;;;;16.10;99.90;;;;;;5049392;28;19939;-48
2023/08/09 00:35:54;;;;;;;;;;;16.00;99.90;;;;;;5059656;28;20360;-49
2023/08/09 00:38:20;;;;;;;;;;;15.90;99.90;;;;;;5032892;28;19904;-48
2023/08/09 00:40:45;;;;;;;;;;;16.00;99.90;;;;;;5053680;28;19970;-48
2023/08/09 00:43:11;;;;;;;;;;;16.10;99.90;;;;;;5049349;28;19912;-49
2023/08/09 00:45:38;;;;;;;;;;;16.10;99.90;;;;;;5036077;28;20383;-47
2023/08/09 00:48:04;;;;;;;;;;;16.30;99.90;;;;;;5056195;28;19905;-47
2023/08/09 00:50:29;;;;;;;;;;;16.30;99.90;;;;;;5075240;28;19904;-47
2023/08/09 00:52:55;;;;;;;;;;;16.20;99.90;;;;;;5089717;28;19908;-48
2023/08/09 00:55:21;;;;;;;;;;;;;;;;;;5068346;28;19909;-46
2023/08/09 00:57:47;;;;;;;;;;;15.40;99.90;;;;;;5076853;28;19908;-49
2023/08/09 01:00:13;;;;;;;;;;;14.90;99.90;;;;;;5074003;28;20038;-48
2023/08/09 01:02:39;;;;;;;;;;;14.70;99.90;;;;;;5068705;28;19998;-46
2023/08/09 01:05:04;;;;;;;;;;;14.60;99.90;;;;;;5071167;28;19947;-46
2023/08/09 01:07:42;;;;;;;;;;;14.80;99.90;;;;;;5082762;28;19915;-48
2023/08/09 01:10:08;;;;;;;;;;;15.10;99.90;;;;;;5075770;28;19915;-49
2023/08/09 01:12:36;;;;;;;;;;;15.50;99.90;;;;;;5081147;28;19909;-47
2023/08/09 01:15:03;;;;;;;;;;;15.60;99.90;;;;;;5071205;28;19908;-48
2023/08/09 01:17:31;;;;;;;;;;;15.80;99.90;;;;;;5085434;28;20046;-48
2023/08/09 01:19:57;;;;;;;;;;;16.00;99.90;;;;;;5072238;28;20368;-47
2023/08/09 01:22:26;;;;;;;;;;;15.90;99.90;;;;;;5068879;28;19915;-49
2023/08/09 01:24:52;;;;;;;;;;;15.70;99.90;;;;;;5074403;28;19911;-48
2023/08/09 01:27:18;;;;;;;;;;;15.70;99.90;;;;;;5071334;28;19916;-48
2023/08/09 01:29:44;;;;;;;;;;;15.70;99.90;;;;;;5070089;28;19916;-48
2023/08/09 01:32:11;;;;;;;;;;;15.80;99.90;;;;;;5064522;28;19908;-48
2023/08/09 01:34:37;;;;;;;;;;;15.60;99.90;;;;;;5076316;28;19908;-47
2023/08/09 01:37:10;;;;;;;;;;;15.60;99.90;;;;;;5072411;28;19962;-48
2023/08/09 01:39:37;;;;;;;;;;;15.40;99.90;;;;;;5074567;28;20320;-47
2023/08/09 01:42:03;;;;;;;;;;;15.50;99.90;;;;;;5078061;28;19908;-48
2023/08/09 01:44:29;;;;;;;;;;;15.50;99.90;;;;;;5069163;28;20360;-48
2023/08/09 01:46:56;;;;;;;;;;;15.40;99.90;;;;;;5086905;28;19911;-47
2023/08/09 01:49:23;;;;;;;;;;;15.60;99.90;;;;;;5070285;28;19904;-46
2023/08/09 01:51:48;;;;;;;;;;;15.70;99.90;;;;;;5072969;28;20339;-47
2023/08/09 01:54:17;;;;;;;;;;;15.90;99.90;;;;;;5088064;28;20006;-47
2023/08/09 01:56:43;;;;;;;;;;;15.40;99.90;;;;;;5075155;28;20333;-46
2023/08/09 01:59:09;;;;;;;;;;;14.90;99.90;;;;;;5070748;28;19923;-48
2023/08/09 02:01:37;;;;;;;;;;;14.50;99.90;;;;;;5075227;28;19904;-46
2023/08/09 02:04:03;;;;;;;;;;;;;;;;;;5062067;28;20395;-47
2023/08/09 02:06:32;;;;;;;;;;;;;;;;;;5069095;28;19951;-47
2023/08/09 02:08:58;;;;;;;;;;;;;;;;;;5070931;28;19969;-46
2023/08/09 02:11:24;;;;;;;;;;;;;;;;;;5082996;28;19904;-47
2023/08/09 02:13:49;;;;;;;;;;;;;;;;;;5073888;28;19908;-48
2023/08/09 02:16:15;;;;;;;;;;;;;;;;;;5074026;28;19915;-49
2023/08/09 02:18:42;;;;;;;;;;;14.20;99.90;;;;;;5074790;28;19916;-48
2023/08/09 02:21:07;;;;;;;;;;;13.80;99.90;;;;;;5074858;28;20002;-46
2023/08/09 02:23:33;;;;;;;;;;;13.80;99.90;;;;;;5080468;28;20053;-47
2023/08/09 02:25:58;;;;;;;;;;;13.80;99.90;;;;;;5087825;28;19904;-48
2023/08/09 02:28:24;;;;;;;;;;;13.70;99.90;;;;;;5087140;28;19923;-49
2023/08/09 02:30:50;;;;;;;;;;;13.80;99.90;;;;;;5089800;28;19908;-48
2023/08/09 02:33:16;;;;;;;;;;;;;;;;;;5073364;28;19908;-48
2023/08/09 02:35:55;;;;;;;;;;;13.70;99.90;;;;;;5076690;28;20272;-46
2023/08/09 02:38:21;;;;;;;;;;;14.00;99.90;;;;;;5090788;28;19915;-48
2023/08/09 02:40:49;;;;;;;;;;;14.30;99.90;;;;;;5071528;28;19959;-47
2023/08/09 02:43:18;;;;;;;;;;;14.20;99.90;;;;;;5088370;28;19916;-48
2023/08/09 02:45:44;;;;;;;;;;;14.20;99.90;;;;;;5056725;28;19911;-48
2023/08/09 02:48:09;;;;;;;;;;;14.30;99.90;;;;;;5088998;28;20442;-47
2023/08/09 02:50:36;;;;;;;;;;;14.40;99.90;;;;;;5089416;28;19947;-46
2023/08/09 02:53:03;;;;;;;;;;;14.50;99.90;;;;;;5092529;28;19907;-47
2023/08/09 02:55:29;;;;;;;;;;;14.10;99.90;;;;;;5089446;28;19956;-48
2023/08/09 02:57:55;;;;;;;;;;;;;;;;;;5026804;28;19915;-48
2023/08/09 03:00:21;;;;;;;;;;;13.70;99.90;;;;;;5091202;28;20014;-47
2023/08/09 03:02:46;;;;;;;;;;;13.90;99.90;;;;;;5094381;28;20002;-47
2023/08/09 03:05:12;;;;;;;;;;;13.80;99.90;;;;;;5092155;28;19908;-46
2023/08/09 03:07:37;;;;;;;;;;;13.60;99.90;;;;;;5072622;28;20125;-48
2023/08/09 03:10:03;;;;;;;;;;;13.60;99.90;;;;;;5078631;28;19912;-49
2023/08/09 03:12:29;;;;;;;;;;;13.40;99.90;;;;;;5081852;28;19962;-47
2023/08/09 03:14:55;;;;;;;;;;;13.60;99.90;;;;;;5073839;28;20355;-46
2023/08/09 03:17:21;;;;;;;;;;;13.60;99.90;;;;;;5074228;28;19915;-47
2023/08/09 03:19:46;;;;;;;;;;;13.50;99.90;;;;;;5088675;28;19961;-47
2023/08/09 03:22:12;;;;;;;;;;;13.60;99.90;;;;;;5089382;28;19914;-47
2023/08/09 03:24:38;;;;;;;;;;;13.90;99.90;;;;;;5081872;28;19908;-47
2023/08/09 03:27:04;;;;;;;;;;;13.90;99.90;;;;;;5072449;28;19916;-46
2023/08/09 03:29:29;;;;;;;;;;;14.20;99.90;;;;;;5069244;28;19916;-47
2023/08/09 03:31:55;;;;;;;;;;;14.40;99.90;;;;;;5071908;28;19953;-48
2023/08/09 03:34:21;;;;;;;;;;;14.50;99.90;;;;;;5083153;28;19915;-48
2023/08/09 03:36:47;;;;;;;;;;;;;;;;;;5042849;28;19904;-47
2023/08/09 03:39:13;;;;;;;;;;;;;;;;;;5088484;28;19925;-48
2023/08/09 03:41:38;;;;;;;;;;;;;;;;;;5083909;28;19908;-46
2023/08/09 03:44:04;;;;;;;;;;;;;;;;;;5071814;28;19908;-48
2023/08/09 03:46:30;;;;;;;;;;;15.10;99.90;;;;;;5070877;28;19909;-48
2023/08/09 03:48:56;;;;;;;;;;;15.20;99.90;;;;;;5089257;28;20006;-47
2023/08/09 03:51:21;;;;;;;;;;;15.10;99.90;;;;;;5073003;28;19916;-46
2023/08/09 03:53:47;;;;;;;;;;;15.20;99.90;;;;;;5073322;28;19923;-48
2023/08/09 03:56:13;;;;;;;;;;;;;;;;;;5074706;28;19908;-49
2023/08/09 03:58:39;;;;;;;;;;;;;;;;;;5076009;28;19947;-47
2023/08/09 04:01:06;;;;;;;;;;;;;;;;;;5090256;28;19999;-48
2023/08/09 04:03:32;;;;;;;;;;;;;;;;;;5072476;28;19908;-48
2023/08/09 04:05:58;;;;;;;;;;;;;;;;;;5074233;28;19909;-46
2023/08/09 04:08:26;;;;;;;;;;;;;;;;;;5073405;28;19908;-48
2023/08/09 04:10:54;;;;;;;;;;;;;;;;;;5068281;28;20233;-47
2023/08/09 04:13:20;;;;;;;;;;;;;;;;;;5080524;28;19949;-46
2023/08/09 04:15:46;;;;;;;;;;;15.80;99.90;;;;;;5071031;28;19908;-46
2023/08/09 04:18:11;;;;;;;;;;;15.90;99.90;;;;;;5071356;28;19950;-47
2023/08/09 04:20:38;;;;;;;;;;;16.00;99.90;;;;;;5072251;28;19920;-47
2023/08/09 04:23:03;;;;;;;;;;;16.00;99.90;;;;;;5069290;28;20355;-49
2023/08/09 04:25:30;;;;;;;;;;;16.00;99.90;;;;;;5070782;28;19995;-47
2023/08/09 04:27:56;;;;;;;;;;;16.10;99.90;;;;;;5073120;28;19923;-48
2023/08/09 04:30:23;;;;;;;;;;;16.00;99.90;;;;;;5072946;28;19908;-47
2023/08/09 04:32:49;;;;;;;;;;;16.10;99.90;;;;;;5073509;28;19912;-46
2023/08/09 04:35:14;;;;;;;;;;;16.10;99.90;;;;;;5066887;28;20344;-48
2023/08/09 04:37:40;;;;;;;;;;;16.10;99.90;;;;;;5088611;28;19912;-47
2023/08/09 04:40:10;;;;;;;;;;;16.10;99.90;;;;;;5073663;28;19916;-48
2023/08/09 04:42:37;;;;;;;;;;;16.10;99.90;;;;;;5072383;28;19909;-46
2023/08/09 04:45:03;;;;;;;;;;;16.20;99.90;;;;;;5073262;28;19908;-47
2023/08/09 04:47:29;;;;;;;;;;;16.30;99.90;;;;;;5096431;28;20533;-47
2023/08/09 04:49:54;;;;;;;;;;;16.30;99.90;;;;;;5070773;28;20009;-49
2023/08/09 04:52:20;;;;;;;;;;;16.50;99.90;;;;;;5074673;28;19914;-48
2023/08/09 04:54:45;;;;;;;;;;;16.40;99.90;;;;;;5074874;28;20302;-48
2023/08/09 04:57:11;;;;;;;;;;;16.50;99.90;;;;;;5089436;28;19908;-46
2023/08/09 04:59:37;;;;;;;;;;;16.50;99.90;;;;;;5093813;28;20016;-47
2023/08/09 05:02:05;;;;;;;;;;;16.60;99.90;;;;;;5088578;28;19908;-47
2023/08/09 05:04:31;;;;;;;;;;;16.70;99.90;;;;;;5086412;28;19915;-47
2023/08/09 05:06:57;;;;;;;;;;;16.60;99.90;;;;;;5071160;28;20271;-46
2023/08/09 05:09:22;;;;;;;;;;;16.60;99.90;;;;;;5071044;28;20362;-50
2023/08/09 05:11:48;;;;;;;;;;;16.70;99.90;;;;;;5092180;28;19915;-47
2023/08/09 05:14:13;;;;;;;;;;;16.80;99.90;;;;;;5104379;27;19912;-50
2023/08/09 05:16:39;;;;;;;;;;;16.90;99.90;;;;;;5039519;28;20014;-48
2023/08/09 05:19:04;;;;;;;;;;;16.90;99.90;;;;;;5060680;28;19920;-47
2023/08/09 05:21:30;;;;;;;;;;;16.90;99.90;;;;;;5071148;28;19909;-47
2023/08/09 05:23:56;;;;;;;;;;;16.90;99.90;;;;;;5074092;28;19908;-47
2023/08/09 05:26:21;;;;;;;;;;;17.00;99.90;;;;;;5071384;28;19913;-47
2023/08/09 05:28:47;;;;;;;;;;;17.20;99.90;;;;;;5077097;28;19930;-47
2023/08/09 05:31:12;;;;;;;;;;;17.20;99.90;;;;;;5040382;28;19916;-48
2023/08/09 05:33:38;;;;;;;;;;;17.20;99.90;;;;;;5081956;28;19912;-47
2023/08/09 05:36:04;;;;;;;;;;;17.40;99.90;;;;;;5078808;28;19908;-48
2023/08/09 05:38:30;;;;;;;;;;;17.50;99.90;;;;;;5091836;28;20333;-47
2023/08/09 05:40:55;;;;;;;;;;;17.60;99.90;;;;;;5089452;28;19915;-47
2023/08/09 05:43:21;;;;;;;;;;;17.60;99.90;;;;;;5039610;28;20359;-48
2023/08/09 05:45:47;;;;;;;;;;;17.60;99.90;;;;;;5089668;28;19904;-47
2023/08/09 05:48:12;;;;;;;;;;;17.60;99.90;;;;;;5088675;28;19904;-47
2023/08/09 05:50:38;;;;;;;;;;;17.60;99.90;;;;;;5072552;28;19919;-47
2023/08/09 05:53:04;;;;;;;;;;;;;;;;;;5034266;28;19908;-47
2023/08/09 05:55:30;;;;;;;;;;;;;;;;;;5088017;28;20291;-48
2023/08/09 05:57:56;;;;;;;8.30;3.40;;;17.90;99.90;;;;;;5091741;28;20410;-48
2023/08/09 06:00:23;;;;;;;6.22;3.67;;;18.30;99.90;;;;;;5086528;28;20085;-47
2023/08/09 06:02:49;;;;;;;6.47;3.10;;;18.60;99.90;;;;;;5089955;28;20958;-46
2023/08/09 06:05:27;;;;;;;7.45;3.05;;;;;;;;;;5087874;28;20036;-47
2023/08/09 06:07:53;;;;;;;7.07;2.78;;;;;;;;;;5087583;28;20067;-46
2023/08/09 06:10:20;;;;;;;7.30;3.03;;;19.20;99.90;;;;;;5070248;28;20048;-47
2023/08/09 06:12:47;;;;;;;5.45;2.97;;;19.20;99.90;;;;;;5093326;28;20426;-47
2023/08/09 06:15:12;;;;;;;5.93;2.67;;;19.30;99.90;;;;;;5071224;28;20078;-47
2023/08/09 06:17:38;;;;;;;6.68;2.95;;;19.30;99.90;;;;;;5037717;28;20048;-47
2023/08/09 06:20:05;;;;;;;8.68;2.70;;;19.50;99.90;;;;;;5073485;28;20046;-46
2023/08/09 06:22:31;;;;;;;6.82;2.83;;;;;;;;;;5072382;28;20400;-47
2023/08/09 06:24:58;;;;;;;8.60;3.28;;;;;;;;;;5061883;28;20032;-48
2023/08/09 06:27:23;;;;;;;6.32;2.30;;;19.50;99.90;;;;;;5067468;28;20052;-47
2023/08/09 06:29:49;;;;;;;9.38;2.72;;;19.50;99.90;;;;;;5070401;28;20035;-47
2023/08/09 06:32:15;;;;;;;7.00;2.20;;;19.70;99.90;;;;;;5048135;28;20033;-49
2023/08/09 06:34:41;;;;;;;7.68;2.83;;;19.50;99.90;;;;;;5074368;28;20452;-48
2023/08/09 06:37:06;;;;;;;5.65;2.47;;;19.60;99.90;;;;;;5071462;28;20020;-49
2023/08/09 06:39:34;;;;;;;5.32;2.42;;;19.60;99.90;;;;;;5069878;28;20086;-46
2023/08/09 06:42:01;;;;;;;3.58;2.40;;;19.60;99.90;;;;;;5071692;28;20037;-48
2023/08/09 06:44:26;;;;;;;8.18;2.75;;;19.80;99.90;;;;;;5076233;28;20039;-47
2023/08/09 06:46:53;;;;;;;5.10;2.70;;;20.10;99.90;;;;;;5062891;28;20028;-48
2023/08/09 06:49:21;;;;;;;7.45;2.80;;;;;;;;;;5070550;28;20039;-49
2023/08/09 06:51:48;;;;;;;6.00;2.35;;;;;;;;;;5070237;28;20398;-45
2023/08/09 06:54:13;;;;;;;6.90;2.78;;;20.80;99.90;;;;;;5070354;28;20017;-46
2023/08/09 06:56:39;;;;;;;3.42;2.33;;;;;;;;;;5092215;28;20128;-48
2023/08/09 06:59:05;;;;;;;5.80;2.72;;;21.10;99.90;;;;;;5080800;28;20032;-47
2023/08/09 07:01:32;;;;;;;5.40;2.58;;;;;;;;;;5074082;28;20494;-46
2023/08/09 07:03:58;;;;;;;7.03;2.78;;;;;;;;;;5075251;28;20111;-47
2023/08/09 07:06:24;;;;;;;5.75;2.67;;;;;;;;;;5082726;28;20480;-47
2023/08/09 07:08:53;;;;;;;6.47;2.63;;;21.70;99.90;;;;;;5071011;28;20060;-50
2023/08/09 07:11:20;;;;;;;9.18;2.70;;;;;;;;;;5078088;28;20040;-50
2023/08/09 07:13:46;;;;;;;7.00;3.13;;;21.90;99.90;;;;;;5074840;28;20020;-49
2023/08/09 07:16:12;;;;;;;6.07;3.10;;;22.20;99.90;;;;;;5080282;28;20433;-45
2023/08/09 07:18:38;;;;;;;4.70;3.35;;;;;;;;;;5078242;28;20038;-46
2023/08/09 07:21:04;;;;;;;4.90;3.08;;;;;;;;;;5070830;28;20044;-47
2023/08/09 07:23:31;;;;;;;5.80;2.70;;;22.50;99.90;;;;;;5073393;28;20380;-47
2023/08/09 07:25:57;;;;;;;4.20;2.60;;;;;;;;;;5077395;28;20024;-47
2023/08/09 07:28:23;;;;;;;3.50;2.42;;;22.60;99.90;;;;;;5039537;28;20400;-48
2023/08/09 07:30:52;;;;;;;3.65;2.35;;;22.70;99.90;;;;;;5070054;28;20033;-48
2023/08/09 07:33:21;;;;;;;4.22;2.17;;;22.90;99.90;;;;;;5073869;28;20090;-48
2023/08/09 07:35:48;;;;;;;3.47;1.88;;;22.90;99.90;;;;;;5079092;28;20534;-47
2023/08/09 07:38:15;;;;;;;3.45;1.83;;;23.10;99.90;;;;;;5075264;28;20119;-49
2023/08/09 07:40:41;;;;;;;7.07;2.10;;;23.10;99.90;;;;;;5071519;28;20501;-49
2023/08/09 07:43:06;;;;;;;3.42;2.05;;;23.10;99.90;;;;;;5081428;28;20027;-48
2023/08/09 07:45:33;;;;;;;4.07;2.63;;;;;;;;;;5073010;28;20074;-49
2023/08/09 07:47:59;;;;;;;5.05;3.88;;;23.40;99.90;;;;;;5074809;28;20071;-48
2023/08/09 07:50:25;;;;;;;7.95;2.35;;;23.60;99.90;;;;;;5071810;28;20047;-50
2023/08/09 07:52:51;;;;;;;7.60;1.90;;;23.70;99.90;;;;;;5072530;28;20032;-48
2023/08/09 07:55:18;;;;;;;3.58;1.60;;;23.60;99.90;;;;;;5075008;28;20033;-49
2023/08/09 07:57:44;;;;;;;2.58;1.55;;;23.50;99.90;;;;;;5071307;28;20111;-49
2023/08/09 08:00:17;;;;;;;2.20;1.67;;;23.30;99.90;;;;;;5072122;28;20124;-48
2023/08/09 08:02:44;;;;;;;2.55;1.63;;;23.40;99.90;;;;;;5066614;28;20446;-49
2023/08/09 08:05:11;;;;;;;6.20;1.85;;;23.50;99.90;;;;;;5072721;28;20139;-47
2023/08/09 08:07:38;;;;;;;4.25;1.83;;;23.70;99.90;;;;;;5069000;28;20043;-49
2023/08/09 08:10:06;;;;;;;3.00;2.10;;;;;;;;;;5072653;28;20070;-49
2023/08/09 08:12:32;;;;;;;4.43;2.42;;;;;;;;;;5071151;28;20487;-48
2023/08/09 08:15:00;;;;;;;4.25;1.90;;;;;;;;;;5084267;28;20048;-48
2023/08/09 08:17:26;;;;;;;5.78;1.80;;;;;;;;;;5074351;28;20360;-50
2023/08/09 08:19:52;;;;;;;2.72;1.67;;;;;;;;;;5072994;28;20491;-47
2023/08/09 08:22:18;;;;;;;3.83;1.67;;;;;;;;;;5073963;28;20032;-49
2023/08/09 08:24:45;;;;;;;7.20;1.92;;;;;;;;;;5075793;28;20043;-47
2023/08/09 08:27:11;;;;;;;4.22;2.30;;;25.00;99.90;;;;;;5085725;28;20056;-47
2023/08/09 08:29:37;;;;;;;4.45;2.13;;;25.30;99.90;;;;;;5073491;28;20043;-48
2023/08/09 08:32:02;;;;;;;3.88;1.88;;;25.60;99.90;;;;;;5072083;28;20024;-48
2023/08/09 08:34:31;;;;;;;4.63;2.22;;;25.40;99.90;;;;;;5037512;28;20945;-47
2023/08/09 08:37:01;;;;;;;2.75;1.58;;;25.30;99.90;;;;;;5067986;28;20024;-49
2023/08/09 08:39:35;;;;;;;2.05;1.27;;;25.30;99.90;;;;;;5071571;28;20369;-47
2023/08/09 08:42:01;;;;;;;1.83;1.42;;;25.20;99.90;;;;;;5069319;28;20384;-48
2023/08/09 08:44:27;;;;;;;4.00;1.45;;;25.40;99.90;;;;;;5070173;28;20043;-47
2023/08/09 08:46:53;;;;;;;2.50;1.40;;;;;;;;;;5067396;28;20041;-49
2023/08/09 08:49:23;;;;;;;1.45;1.25;;;;;;;;;;5067883;28;20042;-48
2023/08/09 08:51:55;;;;;;;3.28;1.73;;;;;;;;;;5074879;28;20036;-48
2023/08/09 08:54:22;;;;;;;2.65;1.60;;;;;;;;;;5064099;28;20086;-49
2023/08/09 08:56:48;;;;;;;2.72;1.70;;;;;;;;;;5075163;28;20032;-48
2023/08/09 08:59:16;;;;;;;3.03;1.60;;;27.00;99.90;;;;;;5071044;28;20122;-49
2023/08/09 09:01:42;;;;;;;3.75;1.60;;;;;;;;;;5080368;28;20043;-48
2023/08/09 09:04:09;;;;;;;4.28;1.70;;;;;;;;;;5080971;28;20039;-49
2023/08/09 09:06:35;;;;;;;2.47;1.50;;;;;;;;;;5075657;28;20021;-48
2023/08/09 09:09:02;;;;;;;4.10;1.48;;;;;;;;;;5069107;28;20059;-50
2023/08/09 09:11:28;;;;;;;4.28;2.05;;;;;;;;;;5072742;28;20526;-50
2023/08/09 09:13:54;;;;;;;2.75;1.55;;;;;;;;;;5070531;28;20120;-49
2023/08/09 09:16:21;;;;;;;4.88;1.80;;;;;;;;;;5069033;28;20045;-49
2023/08/09 09:18:48;;;;;;;2.78;1.35;;;;;;;;;;5072983;28;20039;-49
2023/08/09 09:21:18;;;;;;;5.63;1.80;;;26.40;99.90;;;;;;5075770;28;20047;-49
2023/08/09 09:23:44;;;;;;;7.13;1.60;;;;;;;;;;5064815;28;20028;-50
2023/08/09 09:26:14;;;;;;;6.75;3.05;;;;;;;;;;5070432;28;20021;-47
2023/08/09 09:28:44;;;;;;;2.17;1.50;;;;;;;;;;5068784;28;20459;-49
2023/08/09 09:31:12;;;;;;;2.47;1.25;;;27.70;99.90;;;;;;5069452;28;20028;-49
2023/08/09 09:33:39;;;;;;;3.08;1.30;;;;;;;;;;5067115;28;20071;-47
2023/08/09 09:36:09;;;;;;;2.78;1.33;;;28.00;99.90;;;;;;5074715;28;20029;-49
2023/08/09 09:38:36;;;;;;;2.67;1.60;;;;;;;;;;5076023;28;20107;-47
2023/08/09 09:41:03;;;;;;;3.95;2.60;;;28.50;99.90;;;;;;5067375;28;20396;-48
2023/08/09 09:43:33;;;;;;;2.22;1.30;;;;;;;;;;5088637;28;20698;-48
2023/08/09 09:45:59;;;;;;;2.28;1.40;;;;;;;;;;5085776;28;20041;-48
2023/08/09 09:48:27;;;;;;;3.22;1.50;;;;;;;;;;5079876;28;20028;-48
2023/08/09 09:50:54;;;;;;;3.58;1.40;;;;;;;;;;5071747;28;20468;-47
2023/08/09 09:53:20;;;;;;;3.45;1.55;;;28.30;99.90;;;;;;5067127;28;20029;-47
2023/08/09 09:55:47;;;;;;;2.65;1.45;;;28.30;99.90;;;;;;5076965;28;20051;-46
2023/08/09 09:58:13;;;;;;;5.45;1.95;;;;;;;;;;5067895;28;20028;-47
2023/08/09 10:00:57;;;;;;;3.60;1.25;;;28.20;99.90;;;;;;5069926;28;20039;-48
2023/08/09 10:03:26;;;;;;;4.30;1.30;;;27.90;99.90;;;;;;5070378;28;20499;-47
2023/08/09 10:05:53;;;;;;;2.83;1.73;;;27.50;99.90;;;;;;5066897;28;20374;-48
2023/08/09 10:08:19;;;;;;;6.20;1.70;;;;;;;;;;5074243;28;20021;-48
2023/08/09 10:10:45;;;;;;;2.78;1.30;;;;;;;;;;5075485;28;20349;-48
2023/08/09 10:13:16;;;;;;;2.08;1.30;;;28.50;99.90;;;;;;5072264;28;20032;-48
2023/08/09 10:15:49;;;;;;;3.60;1.67;;;28.50;99.90;;;;;;5073967;28;20115;-48
2023/08/09 10:18:22;;;;;;;2.83;1.30;;;;;;;;;;5068042;28;20024;-47
2023/08/09 10:20:55;;;;;;;3.67;1.48;;;;;;;;;;5071180;28;20057;-47
2023/08/09 10:23:22;;;;;;;2.75;1.60;;;;;;;;;;5069648;28;20033;-47
2023/08/09 10:25:50;;;;;;;2.97;1.10;;;27.60;99.90;;;;;;5072841;28;20037;-47
2023/08/09 10:28:17;;;;;;;4.68;1.38;;;;;;;;;;5071361;28;20058;-47
2023/08/09 10:30:49;;;;;;;2.75;1.42;;;27.00;99.80;;;;;;5073444;28;20028;-47
2023/08/09 10:33:18;;;;;;;2.33;1.33;;;27.00;99.90;;;;;;5088872;28;20050;-47
2023/08/09 10:35:50;;;;;;;2.55;1.50;;;27.30;99.90;;;;;;5078612;28;20111;-48
2023/08/09 10:38:37;;;;;;;2.25;1.40;;;27.50;99.90;;;;;;5092725;28;20030;-47
2023/08/09 10:41:12;;;;;;;3.25;1.80;;;;;;;;;;5070897;28;20400;-48
2023/08/09 10:43:38;;;;;;;2.72;1.90;;;28.60;99.90;;;;;;5076319;28;20086;-47
2023/08/09 10:46:18;;;;;;;3.10;2.13;;;;;;;;;;5074865;28;20423;-47
2023/08/09 10:48:54;;;;;;;4.70;1.50;;;;;;;;;;5070506;28;20124;-47
2023/08/09 10:51:21;;;;;;;2.72;1.55;;;;;;;;;;5088301;28;20040;-46
2023/08/09 10:53:57;;;;;;;1.83;1.25;;;;;;;;;;5073807;28;20032;-47
2023/08/09 10:56:40;;;;;;;3.78;1.40;;;29.50;99.90;;;;;;5072653;28;20086;-46
2023/08/09 10:59:13;;;;;;;2.67;1.30;;;;;;;;;;5069207;28;20020;-48
2023/08/09 11:01:39;;;;;;;2.53;1.65;;;;;;;;;;5072660;28;20090;-48
2023/08/09 11:04:09;;;;;;;2.67;1.70;;;;;;;;;;5073374;28;20067;-48
2023/08/09 11:06:43;;;;;;;3.53;1.40;;;;;;;;;;5073848;28;20597;-46
2023/08/09 11:09:12;;;;;;;1.98;1.33;;;;;;;;;;5088594;28;20040;-48
2023/08/09 11:11:40;;;;;;;2.42;1.85;;;;;;;;;;5064776;28;20051;-47
2023/08/09 11:14:06;;;;;;;2.60;1.58;;;;;;;;;;5073780;28;20029;-47
2023/08/09 11:16:33;;;;;;;2.10;1.45;;;28.90;99.90;;;;;;5075371;28;20074;-50
2023/08/09 11:19:01;;;;;;;3.42;1.50;;;28.50;97.90;;;;;;5035422;28;20032;-49
2023/08/09 11:21:27;;;;;;;2.67;1.35;;;28.10;98.40;;;;;;5068480;28;20496;-49
2023/08/09 11:23:57;;;;;;;2.90;1.50;;;27.90;99.90;;;;;;5005849;28;20032;-48
2023/08/09 11:26:23;;;;;;;1.38;1.05;;;;;;;;;;5080551;28;20111;-47
2023/08/09 11:28:49;;;;;;;2.45;1.20;;;27.10;99.90;;;;;;5033737;28;20059;-48
2023/08/09 11:31:15;;;;;;;1.70;1.10;;;27.80;99.90;;;;;;5070642;28;20020;-49
2023/08/09 11:33:41;;;;;;;2.67;1.25;;;;;;;;;;5072015;28;20039;-49
2023/08/09 11:36:08;;;;;;;1.80;1.10;;;28.00;99.90;;;;;;5057931;28;20636;-47
2023/08/09 11:38:34;;;;;;;2.83;1.33;;;;;;;;;;5070875;28;20506;-46
2023/08/09 11:41:01;;;;;;;1.67;1.30;;;;;;;;;;5069184;28;20040;-47
2023/08/09 11:43:27;;;;;;;2.92;1.25;;;;;;;;;;5072823;28;20028;-46
2023/08/09 11:45:57;;;;;;;1.60;1.30;;;;;;;;;;5028341;28;20036;-47
2023/08/09 11:48:28;;;;;;;3.47;1.30;;;;;;;;;;5047496;28;20040;-46
2023/08/09 11:51:00;;;;;;;1.83;1.30;;;28.40;99.90;;;;;;5006748;28;20047;-49
2023/08/09 11:53:26;;;;;;;2.08;1.52;;;28.40;99.90;;;;;;5068249;28;20040;-47
2023/08/09 11:55:58;;;;;;;2.60;1.20;;;28.50;99.90;;;;;;5090647;28;20565;-47
2023/08/09 11:58:24;;;;;;;2.95;1.00;;;;;;;;;;5055927;28;20041;-46
2023/08/09 12:00:50;;;;;;;3.38;1.25;;;;;;;;;;5073291;28;20037;-46
2023/08/09 12:03:22;;;;;;;2.42;1.35;;;28.70;99.90;;;;;;5027496;28;20040;-46
2023/08/09 12:05:52;;;;;;;1.67;1.20;;;27.90;97.30;;;;;;5085117;28;20070;-46
2023/08/09 12:08:32;;;;;;;1.27;1.02;;;28.10;97.10;;;;;;5068852;28;20033;-47
2023/08/09 12:10:58;;;;;;;1.58;1.38;;;27.70;97.20;;;;;;5081400;28;20124;-48
2023/08/09 12:13:24;;;;;;;3.30;1.42;;;27.70;97.10;;;;;;5069787;28;20175;-46
2023/08/09 12:15:49;;;;;;;3.15;1.35;;;27.90;97.40;;;;;;5034728;28;20101;-49
2023/08/09 12:18:15;;;;;;;1.48;1.20;;;28.30;98.40;;;;;;5067730;28;20033;-47
2023/08/09 12:20:41;;;;;;;3.90;1.40;;;28.60;98.10;;;;;;5071518;28;20123;-47
2023/08/09 12:23:07;;;;;;;2.80;1.67;;;;;;;;;;5074799;28;20107;-46
2023/08/09 12:25:33;;;;;;;2.92;2.15;;;28.80;97.50;;;;;;5070256;28;20045;-46
2023/08/09 12:27:58;;;;;;;2.65;1.70;;;28.40;97.70;;;;;;4999886;28;20053;-47
2023/08/09 12:30:24;;;;;;;3.35;1.77;;;28.10;97.20;;;;;;5032422;28;20083;-46
2023/08/09 12:32:50;;;;;;;1.90;1.55;;;28.50;98.00;;;;;;5029561;28;20037;-47
2023/08/09 12:35:16;;;;;;;4.93;1.70;;;28.70;97.70;;;;;;5027108;28;20060;-49
2023/08/09 12:37:42;;;;;;;4.88;1.70;;;;;;;;;;5015737;28;20145;-49
2023/08/09 12:40:09;;;;;;;3.42;1.50;;;;;;;;;;5016471;28;20061;-49
2023/08/09 12:42:36;;;;;;;2.88;1.55;;;;;;;;;;5025302;28;20106;-48
2023/08/09 12:45:04;;;;;;;3.13;1.60;;;;;;;;;;5040852;28;20042;-50
2023/08/09 12:47:30;;;;;;;2.60;1.60;;;29.90;99.90;;;;;;5039790;28;20037;-50
2023/08/09 12:49:56;;;;;;;3.10;1.77;;;30.20;98.70;;;;;;5042342;28;20049;-49
2023/08/09 12:52:22;;;;;;;12.13;2.15;;;30.30;98.30;;;;;;5037501;28;20034;-48
2023/08/09 12:54:49;;;;;;;2.60;1.60;;;30.10;97.80;;;;;;5019275;28;20039;-47
2023/08/09 12:57:15;;;;;;;3.08;1.40;;;;;;;;;;5037474;28;20056;-48
2023/08/09 12:59:41;;;;;;;2.33;1.77;;;30.50;99.90;;;;;;5075334;28;20117;-49
2023/08/09 13:02:08;;;;;;;4.63;1.50;;;30.30;97.40;;;;;;5079377;28;20079;-51
2023/08/09 13:04:34;;;;;;;3.25;1.48;;;30.40;97.10;;;;;;5081695;28;20036;-50
2023/08/09 13:07:00;;;;;;;2.22;1.52;;;30.70;97.50;;;;;;5079355;28;20162;-48
2023/08/09 13:09:29;;;;;;;4.10;1.67;;;30.10;96.80;;;;;;5085863;28;20056;-49
2023/08/09 13:12:07;;;;;;;2.13;1.40;;;30.60;97.20;;;;;;5081316;28;20062;-48
2023/08/09 13:14:33;;;;;;;2.10;1.45;;;31.00;97.20;;;;;;5062591;28;20039;-49
2023/08/09 13:16:59;;;;;;;5.13;1.70;;;30.50;97.40;;;;;;5042881;28;20513;-47
2023/08/09 13:19:25;;;;;;;2.50;1.77;;;30.70;97.20;;;;;;5043517;28;20120;-48
2023/08/09 13:21:50;;;;;;;4.32;1.65;;;29.80;96.70;;;;;;5037757;28;20021;-47
2023/08/09 13:24:16;;;;;;;3.80;1.73;;;30.20;97.10;;;;;;5062624;28;20067;-47
2023/08/09 13:26:42;;;;;;;2.85;1.70;;;30.00;97.60;;;;;;5044681;28;20037;-48
2023/08/09 13:29:07;;;;;;;3.30;1.70;;;30.20;96.90;;;;;;5045733;28;20088;-48
2023/08/09 13:31:33;;;;;;;3.22;2.10;;;;;;;;;;5027446;28;20037;-47
2023/08/09 13:34:00;;;;;;;3.30;1.40;;;30.90;99.90;;;;;;5024508;28;20436;-48
2023/08/09 13:36:26;;;;;;;2.90;1.70;;;30.70;96.90;;;;;;5039212;28;20037;-46
2023/08/09 13:38:52;;;;;;;4.07;1.75;;;30.90;97.00;;;;;;5037268;28;20044;-46
2023/08/09 13:41:18;;;;;;;3.70;1.90;;;30.40;97.00;;;;;;5057331;28;20601;-47
2023/08/09 13:43:43;;;;;;;3.15;1.65;;;30.30;97.30;;;;;;5045392;28;20036;-48
2023/08/09 13:46:09;;;;;;;3.08;1.67;;;30.20;97.90;;;;;;5066665;28;20025;-48
2023/08/09 13:48:36;;;;;;;8.13;2.30;;;29.50;97.90;;;;;;5070123;28;20033;-47
2023/08/09 13:51:02;;;;;;;3.22;1.60;;;;;;;;;;5064204;28;20078;-47
2023/08/09 13:53:28;;;;;;;6.07;2.22;;;;;;;;;;5069431;28;20024;-47
2023/08/09 13:55:54;;;;;;;2.97;1.60;;;;;;;;;;5078405;28;20024;-47
2023/08/09 13:58:22;;;;;;;5.32;3.63;;;;;;;;;;5070008;28;20062;-47